createdAt,value
2023-01-13T16:02:45.558Z,99.99
2023-01-13T16:03:45.440Z,99.99
2023-01-13T16:04:45.392Z,99.99
2023-01-13T16:05:45.338Z,99.99
2023-01-13T16:06:45.304Z,99.99
2023-01-13T16:07:45.254Z,99.99
2023-01-13T16:08:45.217Z,99.99
2023-01-13T16:09:45.175Z,99.99
2023-01-13T16:10:45.134Z,99.99
2023-01-13T16:11:45.116Z,99.99
2023-01-13T16:12:45.039Z,99.99
2023-01-13T16:13:44.998Z,99.99
2023-01-13T16:14:45.171Z,99.99
2023-01-13T16:15:44.911Z,99.99
2023-01-13T16:16:53.695Z,99.99
2023-01-13T16:17:44.826Z,99.99
2023-01-13T16:18:44.786Z,99.99
2023-01-13T16:19:44.748Z,99.99
2023-01-13T16:20:44.722Z,99.99
2023-01-13T16:21:44.672Z,99.99
2023-01-13T16:22:44.621Z,99.99
2023-01-13T16:23:44.578Z,99.99
2023-01-13T16:24:44.541Z,99.99
2023-01-13T16:25:44.500Z,99.99
2023-01-13T16:26:44.471Z,99.99
2023-01-13T16:27:44.419Z,99.99
2023-01-13T16:28:44.376Z,99.99
2023-01-13T16:29:44.335Z,99.99
2023-01-13T16:30:44.307Z,99.99
2023-01-13T16:31:44.283Z,99.99
2023-01-13T16:32:44.232Z,99.99
2023-01-13T16:33:44.176Z,99.99
2023-01-13T16:34:44.138Z,99.99
2023-01-13T16:36:09.692Z,99.99
2023-01-13T16:36:44.055Z,99.99
2023-01-13T16:37:44.011Z,99.99
2023-01-13T16:38:44.010Z,99.99
2023-01-13T16:39:43.934Z,99.99
2023-01-13T16:40:43.895Z,99.99
2023-01-13T16:41:43.851Z,99.99
2023-01-13T16:42:43.813Z,99.99
2023-01-13T16:43:43.770Z,99.99
2023-01-13T16:44:43.739Z,99.99
2023-01-13T16:45:43.697Z,99.99
2023-01-13T16:46:43.650Z,99.89
2023-01-13T16:47:43.606Z,99.74
2023-01-13T16:48:43.568Z,99.99
2023-01-13T16:49:43.528Z,99.99
2023-01-13T16:50:43.495Z,99.99
2023-01-13T16:51:43.441Z,99.48
2023-01-13T16:52:43.409Z,99.79
2023-01-13T16:53:43.360Z,99.99
2023-01-13T16:54:43.326Z,99.63
2023-01-13T16:55:43.284Z,99.68
2023-01-13T16:56:43.263Z,99.17
2023-01-13T16:57:43.196Z,99.38
2023-01-13T16:58:43.153Z,99.43
2023-01-13T16:59:43.120Z,99.38
2023-01-13T17:00:43.093Z,98.61
2023-01-13T17:01:43.152Z,98.86
2023-01-13T17:02:43.003Z,98.30
2023-01-13T17:03:42.997Z,98.92
2023-01-13T17:04:42.913Z,98.30
2023-01-13T17:05:42.865Z,98.45
2023-01-13T17:06:42.912Z,98.30
2023-01-13T17:07:42.779Z,98.30
2023-01-13T17:08:42.763Z,98.10
2023-01-13T17:09:42.694Z,97.79
2023-01-13T17:10:42.656Z,97.99
2023-01-13T17:11:42.612Z,97.79
2023-01-13T17:12:42.574Z,97.28
2023-01-13T17:13:42.534Z,96.66
2023-01-13T17:14:42.500Z,97.07
2023-01-13T17:15:42.457Z,96.87
2023-01-13T17:16:42.548Z,96.66
2023-01-13T17:17:42.356Z,97.38
2023-01-13T17:18:42.320Z,97.89
2023-01-13T17:19:42.278Z,97.99
2023-01-13T17:20:42.238Z,98.30
2023-01-13T17:21:42.212Z,97.94
2023-01-13T17:22:42.426Z,97.99
2023-01-13T17:23:42.111Z,98.30
2023-01-13T17:24:42.071Z,98.41
2023-01-13T17:25:42.053Z,98.41
2023-01-13T17:26:41.990Z,97.89
2023-01-13T17:27:41.950Z,98.20
2023-01-13T17:28:41.903Z,97.99
2023-01-13T17:29:41.862Z,98.61
2023-01-13T17:30:42.129Z,98.20
2023-01-13T17:31:41.850Z,98.30
2023-01-13T17:32:41.734Z,98.20
2023-01-13T17:33:41.700Z,98.20
2023-01-13T17:34:41.660Z,97.58
2023-01-13T17:35:41.610Z,98.41
2023-01-13T17:36:41.568Z,98.61
2023-01-13T17:37:41.518Z,99.12
2023-01-13T17:38:41.494Z,99.12
2023-01-13T17:39:41.447Z,98.96
2023-01-13T17:40:41.400Z,99.27
2023-01-13T17:41:41.349Z,99.17
2023-01-13T17:42:41.319Z,99.12
2023-01-13T17:43:41.269Z,99.99
2023-01-13T17:44:41.230Z,99.84
2023-01-13T17:45:41.228Z,99.22
2023-01-13T17:46:41.147Z,99.79
2023-01-13T17:47:41.096Z,99.99
2023-01-13T17:48:41.060Z,99.95
2023-01-13T17:49:41.013Z,99.79
2023-01-13T17:50:40.986Z,99.68
2023-01-13T17:51:40.941Z,99.89
2023-01-13T17:52:40.890Z,99.99
2023-01-13T17:53:40.849Z,99.68
2023-01-13T17:54:40.801Z,99.58
2023-01-13T17:55:40.762Z,99.79
2023-01-13T17:56:40.737Z,99.79
2023-01-13T17:57:40.683Z,99.99
2023-01-13T17:58:40.640Z,99.99
2023-01-13T17:59:40.590Z,99.38
2023-01-13T18:00:40.550Z,99.38
2023-01-13T18:01:40.580Z,99.38
2023-01-13T18:02:40.545Z,98.55
2023-01-13T18:03:40.460Z,98.45
2023-01-13T18:04:40.383Z,98.14
2023-01-13T18:05:40.340Z,98.45
2023-01-13T18:06:40.309Z,98.35
2023-01-13T18:07:40.260Z,97.69
2023-01-13T18:08:40.211Z,97.17
2023-01-13T18:09:40.193Z,96.87
2023-01-13T18:10:40.140Z,97.63
2023-01-13T18:11:40.080Z,97.69
2023-01-13T18:12:40.053Z,96.91
2023-01-13T18:13:40.014Z,96.66
2023-01-13T18:14:39.974Z,96.66
2023-01-13T18:15:39.923Z,96.35
2023-01-13T18:16:39.895Z,95.84
2023-01-13T18:17:39.827Z,94.92
2023-01-13T18:18:39.791Z,95.32
2023-01-13T18:19:39.747Z,94.81
2023-01-13T18:20:39.703Z,94.92
2023-01-13T18:21:39.676Z,94.81
2023-01-13T18:22:39.622Z,93.59
2023-01-13T18:23:39.578Z,93.64
2023-01-13T18:24:39.537Z,93.27
2023-01-13T18:25:39.492Z,92.55
2023-01-13T18:26:39.495Z,92.51
2023-01-13T18:27:39.421Z,92.10
2023-01-13T18:28:39.365Z,92.72
2023-01-13T18:29:39.335Z,91.49
2023-01-13T18:30:39.285Z,91.80
2023-01-13T18:31:39.241Z,91.80
2023-01-13T18:32:39.222Z,91.69
2023-01-13T18:33:39.169Z,91.63
2023-01-13T18:34:39.127Z,92.31
2023-01-13T18:35:39.071Z,92.72
2023-01-13T18:36:39.041Z,92.76
2023-01-13T18:37:39.002Z,92.31
2023-01-13T18:38:38.946Z,92.25
2023-01-13T18:39:38.930Z,92.31
2023-01-13T18:40:38.864Z,92.41
2023-01-13T18:41:38.826Z,91.28
2023-01-13T18:42:38.777Z,90.87
2023-01-13T18:43:38.737Z,91.49
2023-01-13T18:44:38.697Z,90.87
2023-01-13T18:45:38.697Z,91.59
2023-01-13T18:46:38.606Z,91.90
2023-01-13T18:47:38.567Z,92.21
2023-01-13T18:48:38.535Z,91.90
2023-01-13T18:49:38.500Z,91.42
2023-01-13T18:50:38.443Z,91.28
2023-01-13T18:51:38.421Z,91.69
2023-01-13T18:52:38.361Z,91.28
2023-01-13T18:53:38.317Z,90.97
2023-01-13T18:54:38.272Z,90.36
2023-01-13T18:55:38.250Z,91.38
2023-01-13T18:56:38.198Z,91.38
2023-01-13T18:57:38.161Z,90.50
2023-01-13T18:58:38.111Z,90.46
2023-01-13T18:59:38.071Z,90.87
2023-01-13T19:00:38.022Z,90.16
2023-01-13T19:01:38.176Z,91.18
2023-01-13T19:02:38.024Z,90.56
2023-01-13T19:03:37.912Z,91.18
2023-01-13T19:04:37.852Z,90.26
2023-01-13T19:05:37.818Z,90.05
2023-01-13T19:06:37.774Z,89.75
2023-01-13T19:07:37.733Z,90.05
2023-01-13T19:08:37.690Z,89.75
2023-01-13T19:09:37.678Z,89.75
2023-01-13T19:10:37.600Z,89.95
2023-01-13T19:11:37.580Z,88.51
2023-01-13T19:12:37.525Z,89.33
2023-01-13T19:13:37.490Z,88.82
2023-01-13T19:14:37.603Z,89.54
2023-01-13T19:15:37.474Z,89.64
2023-01-13T19:16:37.365Z,89.13
2023-01-13T19:17:37.321Z,88.62
2023-01-13T19:18:37.267Z,89.43
2023-01-13T19:19:37.238Z,88.62
2023-01-13T19:20:37.184Z,89.13
2023-01-13T19:21:37.159Z,87.90
2023-01-13T19:22:37.112Z,88.82
2023-01-13T19:23:37.064Z,89.54
2023-01-13T19:24:37.022Z,89.33
2023-01-13T19:25:36.977Z,89.23
2023-01-13T19:26:36.934Z,89.03
2023-01-13T19:27:36.907Z,88.51
2023-01-13T19:28:36.850Z,88.72
2023-01-13T19:29:36.813Z,88.10
2023-01-13T19:30:36.769Z,88.41
2023-01-13T19:31:36.735Z,88.00
2023-01-13T19:32:36.687Z,88.66
2023-01-13T19:33:36.676Z,88.51
2023-01-13T19:34:36.605Z,89.37
2023-01-13T19:35:36.557Z,88.72
2023-01-13T19:36:36.516Z,88.92
2023-01-13T19:37:36.472Z,88.14
2023-01-13T19:38:36.434Z,87.90
2023-01-13T19:39:36.411Z,88.82
2023-01-13T19:40:36.351Z,89.33
2023-01-13T19:41:36.311Z,89.58
2023-01-13T19:42:36.266Z,90.26
2023-01-13T19:43:36.235Z,89.69
2023-01-13T19:44:36.183Z,89.89
2023-01-13T19:45:36.157Z,89.78
2023-01-13T19:46:36.129Z,89.78
2023-01-13T19:47:36.060Z,90.09
2023-01-13T19:48:36.011Z,90.20
2023-01-13T19:49:35.977Z,89.69
2023-01-13T19:50:35.931Z,90.40
2023-01-13T19:51:35.900Z,89.78
2023-01-13T19:52:35.843Z,89.89
2023-01-13T19:53:35.808Z,89.78
2023-01-13T19:54:35.766Z,90.40
2023-01-13T19:55:35.735Z,90.30
2023-01-13T19:56:35.682Z,89.78
2023-01-13T19:57:35.652Z,89.58
2023-01-13T19:58:35.595Z,89.89
2023-01-13T19:59:35.580Z,90.81
2023-01-13T20:00:35.518Z,90.09
2023-01-13T20:01:35.583Z,89.78
2023-01-13T20:02:35.513Z,91.12
2023-01-13T20:03:35.405Z,91.12
2023-01-13T20:04:35.350Z,91.12
2023-01-13T20:05:35.306Z,90.81
2023-01-13T20:06:35.262Z,91.12
2023-01-13T20:07:35.365Z,90.91
2023-01-13T20:08:35.175Z,91.12
2023-01-13T20:09:35.147Z,91.02
2023-01-13T20:10:35.086Z,91.47
2023-01-13T20:11:35.051Z,91.42
2023-01-13T20:12:35.012Z,91.47
2023-01-13T20:13:35.825Z,91.27
2023-01-13T20:14:34.921Z,91.74
2023-01-13T20:15:35.825Z,91.53
2023-01-13T20:16:34.837Z,91.63
2023-01-13T20:17:34.804Z,91.22
2023-01-13T20:18:34.754Z,91.47
2023-01-13T20:19:34.722Z,92.19
2023-01-13T20:20:34.668Z,91.78
2023-01-13T20:21:34.648Z,92.08
2023-01-13T20:22:34.587Z,92.13
2023-01-13T20:23:34.574Z,92.80
2023-01-13T20:24:34.500Z,93.21
2023-01-13T20:25:34.544Z,92.70
2023-01-13T20:26:34.429Z,92.74
2023-01-13T20:27:34.396Z,92.50
2023-01-13T20:28:34.350Z,92.91
2023-01-13T20:29:34.300Z,93.01
2023-01-13T20:30:34.252Z,93.42
2023-01-13T20:31:34.261Z,92.80
2023-01-13T20:32:34.166Z,93.12
2023-01-13T20:33:34.126Z,94.04
2023-01-13T20:34:34.091Z,93.52
2023-01-13T20:35:34.043Z,93.93
2023-01-13T20:36:33.997Z,93.32
2023-01-13T20:37:33.956Z,93.73
2023-01-13T20:38:33.912Z,93.63
2023-01-13T20:39:33.904Z,93.83
2023-01-13T20:40:33.827Z,93.42
2023-01-13T20:41:33.787Z,93.83
2023-01-13T20:42:33.744Z,93.63
2023-01-13T20:43:33.703Z,93.83
2023-01-13T20:44:33.662Z,93.93
2023-01-13T20:45:33.637Z,93.83
2023-01-13T20:46:33.598Z,93.32
2023-01-13T20:47:33.542Z,94.04
2023-01-13T20:48:33.489Z,93.93
2023-01-13T20:49:33.448Z,94.45
2023-01-13T20:50:33.404Z,94.34
2023-01-13T20:51:33.378Z,94.76
2023-01-13T20:52:33.338Z,94.34
2023-01-13T20:53:33.296Z,94.76
2023-01-13T20:54:33.248Z,95.06
2023-01-13T20:55:33.226Z,96.03
2023-01-13T20:56:33.151Z,95.62
2023-01-13T20:57:33.117Z,95.68
2023-01-13T20:58:33.070Z,95.83
2023-01-13T20:59:33.027Z,95.83
2023-01-13T21:00:33.033Z,96.50
2023-01-13T21:01:33.022Z,96.23
2023-01-13T21:02:32.898Z,97.06
2023-01-13T21:03:32.905Z,97.27
2023-01-13T21:04:32.813Z,97.57
2023-01-13T21:05:32.775Z,96.95
2023-01-13T21:06:32.737Z,96.65
2023-01-13T21:07:32.711Z,97.67
2023-01-13T21:08:32.659Z,97.57
2023-01-13T21:09:32.606Z,97.67
2023-01-13T21:10:32.567Z,97.16
2023-01-13T21:11:32.519Z,97.06
2023-01-13T21:12:32.482Z,96.85
2023-01-13T21:13:32.437Z,97.99
2023-01-13T21:14:32.400Z,96.95
2023-01-13T21:15:32.360Z,96.65
2023-01-13T21:16:32.357Z,97.06
2023-01-13T21:17:32.280Z,97.06
2023-01-13T21:18:32.221Z,96.75
2023-01-13T21:19:32.182Z,97.88
2023-01-13T21:20:32.158Z,97.37
2023-01-13T21:21:32.099Z,97.92
2023-01-13T21:22:32.060Z,98.33
2023-01-13T21:23:32.012Z,98.60
2023-01-13T21:24:31.964Z,98.08
2023-01-13T21:25:33.938Z,98.54
2023-01-13T21:26:31.889Z,98.08
2023-01-13T21:27:31.850Z,98.70
2023-01-13T21:28:31.804Z,98.19
2023-01-13T21:29:31.762Z,98.03
2023-01-13T21:30:31.721Z,97.67
2023-01-13T21:31:31.701Z,98.39
2023-01-13T21:32:31.631Z,98.44
2023-01-13T21:33:31.595Z,98.54
2023-01-13T21:34:31.546Z,97.37
2023-01-13T21:35:31.530Z,97.47
2023-01-13T21:36:31.462Z,98.19
2023-01-13T21:37:31.438Z,97.78
2023-01-13T21:38:31.392Z,98.24
2023-01-13T21:39:31.337Z,97.47
2023-01-13T21:40:31.304Z,97.16
2023-01-13T21:41:31.255Z,97.92
2023-01-13T21:42:31.811Z,98.29
2023-01-13T21:43:31.244Z,98.24
2023-01-13T21:44:31.143Z,98.44
2023-01-13T21:45:31.121Z,98.19
2023-01-13T21:46:31.041Z,97.41
2023-01-13T21:47:31.016Z,98.19
2023-01-13T21:48:30.966Z,98.60
2023-01-13T21:49:30.912Z,98.29
2023-01-13T21:50:30.876Z,97.99
2023-01-13T21:51:30.831Z,98.39
2023-01-13T21:52:30.794Z,99.01
2023-01-13T21:53:30.760Z,97.99
2023-01-13T21:54:30.698Z,98.50
2023-01-13T21:55:30.662Z,98.29
2023-01-13T21:56:30.626Z,98.80
2023-01-13T21:57:30.585Z,98.96
2023-01-13T21:58:30.547Z,99.05
2023-01-13T21:59:30.508Z,98.65
2023-01-13T22:00:30.468Z,99.52
2023-01-13T22:01:30.472Z,99.26
2023-01-13T22:02:30.444Z,99.26
2023-01-13T22:03:30.333Z,99.67
2023-01-13T22:04:30.279Z,99.37
2023-01-13T22:05:30.238Z,99.63
2023-01-13T22:06:30.255Z,99.01
2023-01-13T22:07:30.153Z,98.75
2023-01-13T22:08:30.108Z,98.96
2023-01-13T22:09:30.071Z,99.67
2023-01-13T22:10:30.052Z,99.37
2023-01-13T22:11:29.988Z,99.47
2023-01-13T22:12:29.949Z,98.96
2023-01-13T22:13:29.914Z,99.47
2023-01-13T22:14:29.858Z,98.85
2023-01-13T22:15:29.814Z,99.26
2023-01-13T22:16:29.788Z,99.47
2023-01-13T22:17:39.410Z,99.42
2023-01-13T22:18:29.694Z,99.16
2023-01-13T22:19:29.663Z,99.42
2023-01-13T22:20:29.605Z,98.85
2023-01-13T22:21:29.566Z,98.96
2023-01-13T22:22:29.517Z,99.05
2023-01-13T22:23:29.474Z,99.47
2023-01-13T22:24:29.451Z,99.51
2023-01-13T22:25:29.416Z,99.37
2023-01-13T22:26:29.347Z,98.96
2023-01-13T22:27:29.309Z,99.47
2023-01-13T22:28:29.261Z,99.47
2023-01-13T22:29:29.223Z,99.41
2023-01-13T22:30:29.192Z,99.51
2023-01-13T22:31:29.157Z,99.37
2023-01-13T22:32:29.096Z,99.47
2023-01-13T22:33:29.066Z,99.37
2023-01-13T22:34:29.009Z,99.26
2023-01-13T22:35:28.973Z,99.05
2023-01-13T22:36:28.942Z,99.47
2023-01-13T22:37:28.891Z,99.37
2023-01-13T22:38:28.841Z,99.47
2023-01-13T22:39:28.796Z,99.05
2023-01-13T22:40:28.756Z,99.41
2023-01-13T22:41:28.723Z,99.05
2023-01-13T22:42:28.674Z,99.26
2023-01-13T22:43:28.632Z,99.37
2023-01-13T22:44:28.586Z,99.26
2023-01-13T22:45:28.550Z,99.26
2023-01-13T22:46:28.503Z,99.57
2023-01-13T22:47:28.466Z,99.16
2023-01-13T22:48:28.419Z,99.47
2023-01-13T22:49:28.370Z,99.37
2023-01-13T22:50:28.334Z,99.52
2023-01-13T22:51:28.302Z,99.47
2023-01-13T22:52:28.246Z,99.47
2023-01-13T22:53:28.202Z,99.16
2023-01-13T22:54:28.159Z,99.37
2023-01-13T22:55:28.117Z,99.37
2023-01-13T22:56:28.085Z,99.57
2023-01-13T22:57:35.524Z,99.16
2023-01-13T22:58:27.994Z,99.82
2023-01-13T22:59:27.993Z,99.67
2023-01-13T23:00:27.909Z,99.00
2023-01-13T23:01:27.919Z,99.37
2023-01-13T23:02:27.833Z,99.16
2023-01-13T23:03:27.803Z,99.47
2023-01-13T23:04:27.772Z,99.57
2023-01-13T23:05:27.701Z,99.16
2023-01-13T23:06:27.653Z,99.67
2023-01-13T23:07:27.615Z,99.42
2023-01-13T23:08:27.936Z,99.37
2023-01-13T23:09:27.527Z,99.05
2023-01-13T23:10:27.522Z,99.26
2023-01-13T23:11:27.451Z,99.47
2023-01-13T23:12:27.427Z,98.96
2023-01-13T23:13:27.360Z,98.85
2023-01-13T23:14:27.346Z,98.75
2023-01-13T23:15:27.295Z,98.65
2023-01-13T23:16:27.263Z,99.16
2023-01-13T23:17:27.195Z,98.85
2023-01-13T23:18:27.148Z,98.65
2023-01-13T23:19:27.106Z,99.57
2023-01-13T23:20:27.063Z,98.85
2023-01-13T23:21:27.033Z,98.44
2023-01-13T23:22:26.997Z,98.54
2023-01-13T23:23:26.933Z,98.65
2023-01-13T23:24:26.892Z,98.44
2023-01-13T23:25:26.849Z,98.03
2023-01-13T23:26:26.811Z,98.54
2023-01-13T23:27:26.777Z,97.88
2023-01-13T23:28:26.724Z,98.60
2023-01-13T23:29:26.681Z,98.24
2023-01-13T23:30:26.641Z,98.33
2023-01-13T23:31:26.593Z,98.13
2023-01-13T23:32:26.559Z,98.39
2023-01-13T23:33:26.527Z,98.29
2023-01-13T23:34:26.485Z,98.65
2023-01-13T23:35:26.451Z,98.08
2023-01-13T23:36:26.388Z,98.54
2023-01-13T23:37:26.341Z,98.13
2023-01-13T23:38:26.301Z,98.39
2023-01-13T23:39:26.255Z,97.92
2023-01-13T23:40:26.221Z,98.24
2023-01-13T23:41:26.202Z,97.52
2023-01-13T23:42:26.148Z,98.44
2023-01-13T23:43:26.087Z,98.33
2023-01-13T23:44:26.052Z,97.67
2023-01-13T23:45:26.896Z,97.62
2023-01-13T23:46:26.061Z,98.44
2023-01-13T23:47:25.928Z,97.72
2023-01-13T23:48:25.883Z,98.24
2023-01-13T23:49:25.848Z,98.54
2023-01-13T23:50:25.794Z,98.65
2023-01-13T23:51:25.748Z,98.13
2023-01-13T23:52:25.734Z,98.24
2023-01-13T23:53:25.668Z,97.41
2023-01-13T23:54:25.628Z,98.33
2023-01-13T23:55:25.597Z,98.03
2023-01-13T23:56:25.554Z,98.44
2023-01-13T23:57:25.553Z,97.62
2023-01-13T23:58:25.474Z,98.24
2023-01-13T23:59:25.407Z,98.33
